Time;durP1;ratioP1;P1;durP2;ratioP2;P2;SDS_P1;SDS_P2;PMS_P1;PMS_P2;Temp;Humidity;BMP_temperature;BMP_pressure;BME280_temperature;BME280_humidity;BME280_pressure;Samples;Min_cycle;Max_cycle;Signal;HPM_P1;HPM_P2
2022/08/22 00:00:59;;;;;;;;;;;12.00;99.90;;;;;;5124798;27;19912;-55
2022/08/22 00:03:44;;;;;;;;;;;12.00;99.90;;;;;;5117355;27;19920;-56
2022/08/22 00:06:29;;;;;;;;;;;12.00;99.90;;;;;;5124916;27;19918;-55
2022/08/22 00:09:19;;;;;;;;;;;12.00;99.90;;;;;;5124244;27;19922;-56
2022/08/22 00:12:03;;;;;;;;;;;12.00;99.90;;;;;;5125047;27;19957;-54
2022/08/22 00:14:47;;;;;;;;;;;11.90;99.90;;;;;;5087127;27;19913;-56
2022/08/22 00:17:39;;;;;;;;;;;11.90;99.90;;;;;;5124730;27;19922;-55
2022/08/22 00:20:23;;;;;;;;;;;11.90;99.90;;;;;;5105448;27;19977;-55
2022/08/22 00:23:09;;;;;;;;;;;11.90;99.90;;;;;;5122249;27;19911;-56
2022/08/22 00:25:51;;;;;;;;;;;11.90;99.90;;;;;;5124808;27;19912;-56
2022/08/22 00:28:35;;;;;;;;;;;11.80;99.90;;;;;;5124423;27;19941;-54
2022/08/22 00:31:23;;;;;;;;;;;11.70;99.90;;;;;;5104453;27;19953;-55
2022/08/22 00:34:06;;;;;;;;;;;11.60;99.90;;;;;;5124766;27;19912;-55
2022/08/22 00:36:50;;;;;;;;;;;11.50;99.90;;;;;;5124920;27;20324;-56
2022/08/22 00:39:34;;;;;;;;;;;11.50;99.90;;;;;;5124276;27;19918;-55
2022/08/22 00:42:21;;;;;;;;;;;11.40;99.90;;;;;;5125121;27;19912;-55
2022/08/22 00:45:11;;;;;;;;;;;11.50;99.90;;;;;;5124790;27;19947;-55
2022/08/22 00:48:05;;;;;;;;;;;11.60;99.90;;;;;;5125007;27;20286;-56
2022/08/22 00:50:59;;;;;;;;;;;11.40;99.90;;;;;;5124463;27;19918;-54
2022/08/22 00:53:49;;;;;;;;;;;11.40;99.90;;;;;;5120919;27;19918;-56
2022/08/22 00:56:51;;;;;;;;;;;11.30;99.90;;;;;;5125146;27;19912;-56
2022/08/22 00:59:47;;;;;;;;;;;11.20;99.90;;;;;;5124500;27;19918;-55
2022/08/22 01:02:31;;;;;;;;;;;11.20;99.90;;;;;;5125386;27;19918;-56
2022/08/22 01:05:20;;;;;;;;;;;11.10;99.90;;;;;;5078587;28;20320;-56
2022/08/22 01:08:08;;;;;;;;;;;11.10;99.90;;;;;;5105316;27;19912;-55
2022/08/22 01:10:56;;;;;;;;;;;11.10;99.90;;;;;;5103120;27;19912;-56
2022/08/22 01:13:45;;;;;;;;;;;11.00;99.90;;;;;;5124780;27;19918;-54
2022/08/22 01:16:31;;;;;;;;;;;11.00;99.90;;;;;;5103893;27;19912;-55
2022/08/22 01:19:24;;;;;;;;;;;11.10;99.90;;;;;;5124075;27;19912;-56
2022/08/22 01:22:21;;;;;;;;;;;11.00;99.90;;;;;;5124966;27;19918;-55
2022/08/22 01:25:18;;;;;;;;;;;11.00;99.90;;;;;;5124808;27;19933;-55
2022/08/22 01:28:24;;;;;;;;;;;11.00;99.90;;;;;;5125837;27;19960;-55
2022/08/22 01:31:20;;;;;;;;;;;11.00;99.90;;;;;;5124605;27;19912;-55
2022/08/22 01:34:14;;;;;;;;;;;10.90;99.90;;;;;;5125259;27;19915;-55
2022/08/22 01:37:08;;;;;;;;;;;10.80;99.90;;;;;;5131636;27;20308;-56
2022/08/22 01:40:14;;;;;;;;;;;10.70;99.90;;;;;;5124334;27;19926;-56
2022/08/22 01:43:06;;;;;;;;;;;10.80;99.90;;;;;;5123602;27;19916;-55
2022/08/22 01:46:09;;;;;;;;;;;10.90;99.90;;;;;;5105276;27;19953;-56
2022/08/22 01:48:51;;;;;;;;;;;10.90;99.90;;;;;;5111635;27;19922;-55
2022/08/22 01:51:37;;;;;;;;;;;10.90;99.90;;;;;;5100765;27;20456;-55
2022/08/22 01:54:24;;;;;;;;;;;10.90;99.90;;;;;;5087936;27;19920;-55
2022/08/22 01:57:07;;;;;;;;;;;10.90;99.90;;;;;;5118841;27;19911;-54
2022/08/22 01:59:48;;;;;;;;;;;10.80;99.90;;;;;;5101187;27;19962;-56
2022/08/22 02:02:36;;;;;;;;;;;10.70;99.90;;;;;;5119103;27;19912;-56
2022/08/22 02:05:23;;;;;;;;;;;10.60;99.90;;;;;;5120229;27;20256;-55
2022/08/22 02:08:06;;;;;;;;;;;10.60;99.90;;;;;;5125265;27;19916;-55
2022/08/22 02:10:52;;;;;;;;;;;10.50;99.90;;;;;;5119603;27;19916;-55
2022/08/22 02:13:42;;;;;;;;;;;10.50;99.90;;;;;;5096584;27;19916;-56
2022/08/22 02:16:25;;;;;;;;;;;10.50;99.90;;;;;;5103849;27;20332;-55
2022/08/22 02:19:11;;;;;;;;;;;10.40;99.90;;;;;;5124270;27;19931;-55
2022/08/22 02:21:54;;;;;;;;;;;10.40;99.90;;;;;;5121617;27;19925;-56
2022/08/22 02:24:44;;;;;;;;;;;10.30;99.90;;;;;;5109071;27;19918;-56
2022/08/22 02:27:33;;;;;;;;;;;10.30;99.90;;;;;;5124889;27;19921;-54
2022/08/22 02:30:14;;;;;;;;;;;10.40;99.90;;;;;;5124635;27;19934;-56
2022/08/22 02:33:03;;;;;;;;;;;10.50;99.90;;;;;;5099054;27;20324;-56
2022/08/22 02:35:49;;;;;;;;;;;10.40;99.90;;;;;;5124519;27;19934;-56
2022/08/22 02:38:32;;;;;;;;;;;10.30;99.90;;;;;;5125230;27;19918;-56
2022/08/22 02:41:14;;;;;;;;;;;10.20;99.90;;;;;;5125175;27;19919;-55
2022/08/22 02:43:57;;;;;;;;;;;10.10;99.90;;;;;;5115499;27;19918;-55
2022/08/22 02:46:45;;;;;;;;;;;10.00;99.90;;;;;;5124632;27;19918;-56
2022/08/22 02:49:30;;;;;;;;;;;10.00;99.90;;;;;;5124695;27;19912;-55
2022/08/22 02:52:13;;;;;;;;;;;9.90;99.90;;;;;;5125018;27;19922;-55
2022/08/22 02:54:55;;;;;;;;;;;9.90;99.90;;;;;;5086694;27;19917;-55
2022/08/22 02:57:36;;;;;;;;;;;9.90;99.90;;;;;;5124323;27;19915;-56
2022/08/22 03:00:17;;;;;;;;;;;9.90;99.90;;;;;;5120953;27;19922;-55
2022/08/22 03:03:02;;;;;;;;;;;9.80;99.90;;;;;;5120784;27;19922;-56
2022/08/22 03:05:47;;;;;;;;;;;9.80;99.90;;;;;;5122553;27;19919;-56
2022/08/22 03:08:28;;;;;;;;;;;9.90;99.90;;;;;;5138419;27;20281;-54
2022/08/22 03:11:15;;;;;;;;;;;9.90;99.90;;;;;;5109096;27;19916;-56
2022/08/22 03:14:01;;;;;;;;;;;9.90;99.90;;;;;;5119834;27;19930;-56
2022/08/22 03:16:46;;;;;;;;;;;9.90;99.90;;;;;;5119563;27;20332;-55
2022/08/22 03:19:30;;;;;;;;;;;9.90;99.90;;;;;;5127342;27;20223;-55
2022/08/22 03:22:13;;;;;;;;;;;10.00;99.90;;;;;;5119441;27;19912;-56
2022/08/22 03:24:55;;;;;;;;;;;10.00;99.90;;;;;;5094698;27;19946;-57
2022/08/22 03:27:38;;;;;;;;;;;10.10;99.90;;;;;;5096973;27;19912;-56
2022/08/22 03:30:21;;;;;;;;;;;10.00;99.90;;;;;;5122909;27;19916;-55
2022/08/22 03:33:15;;;;;;;;;;;10.00;99.90;;;;;;5120294;27;19929;-55
2022/08/22 03:36:10;;;;;;;;;;;10.10;99.90;;;;;;5125007;27;19912;-56
2022/08/22 03:39:01;;;;;;;;;;;10.10;99.90;;;;;;5144322;27;19912;-56
2022/08/22 03:41:58;;;;;;;;;;;10.10;99.90;;;;;;5125808;27;19912;-55
2022/08/22 03:44:49;;;;;;;;;;;10.10;99.90;;;;;;5110437;27;19926;-56
2022/08/22 03:47:45;;;;;;;;;;;10.10;99.90;;;;;;5126551;27;19926;-57
2022/08/22 03:50:52;;;;;;;;;;;10.10;99.90;;;;;;5126736;27;19938;-56
2022/08/22 03:53:46;;;;;;;;;;;10.00;99.90;;;;;;5119606;27;19922;-56
2022/08/22 03:56:32;;;;;;;;;;;9.90;99.90;;;;;;5126641;27;19912;-56
2022/08/22 03:59:35;;;;;;;;;;;9.80;99.90;;;;;;5126799;27;19945;-56
2022/08/22 04:02:31;;;;;;;;;;;9.70;99.90;;;;;;5126961;27;19918;-56
2022/08/22 04:05:25;;;;;;;;;;;9.70;99.90;;;;;;5106547;27;19926;-56
2022/08/22 04:08:17;;;;;;;;;;;9.70;99.90;;;;;;5126835;27;20369;-58
2022/08/22 04:11:14;;;;;;;;;;;9.70;99.90;;;;;;5106044;27;20010;-56
2022/08/22 04:14:14;;;;;;;;;;;9.60;99.90;;;;;;5095671;27;19913;-55
2022/08/22 04:17:14;;;;;;;;;;;9.60;99.90;;;;;;5126081;27;20387;-54
2022/08/22 04:20:01;;;;;;;;;;;9.60;99.90;;;;;;5104945;27;20327;-55
2022/08/22 04:22:49;;;;;;;;;;;9.60;99.90;;;;;;5125024;27;20415;-55
2022/08/22 04:25:33;;;;;;;;;;;9.70;99.90;;;;;;5126584;27;20278;-55
2022/08/22 04:28:19;;;;;;;;;;;9.70;99.90;;;;;;5126863;27;19912;-55
2022/08/22 04:31:03;;;;;;;;;;;9.80;99.90;;;;;;5126026;27;19919;-55
2022/08/22 04:33:46;;;;;;;;;;;9.80;99.90;;;;;;5118014;27;19912;-55
2022/08/22 04:36:30;;;;;;;;;;;9.80;99.90;;;;;;5106024;27;20320;-55
2022/08/22 04:39:17;;;;;;;;;;;9.90;99.90;;;;;;5126586;27;20184;-55
2022/08/22 04:42:01;;;;;;;;;;;9.90;99.90;;;;;;5127294;27;19945;-54
2022/08/22 04:44:46;;;;;;;;;;;10.00;99.90;;;;;;5126549;27;19919;-55
2022/08/22 04:47:30;;;;;;;;;;;10.00;99.90;;;;;;5126321;27;19918;-54
2022/08/22 04:50:20;;;;;;;;;;;10.10;99.90;;;;;;5126293;27;19912;-55
2022/08/22 04:53:03;;;;;;;;;;;10.10;99.90;;;;;;5124203;27;19912;-55
2022/08/22 04:55:49;;;;;;;;;;;10.10;99.90;;;;;;5105464;27;20184;-55
2022/08/22 04:58:36;;;;;;;;;;;10.10;99.90;;;;;;5126607;27;19918;-54
2022/08/22 05:01:18;;;;;;;;;;;10.10;99.90;;;;;;5106280;27;19912;-55
2022/08/22 05:04:01;;;;;;;;;;;10.20;99.90;;;;;;5075755;28;19912;-55
2022/08/22 05:06:43;;;;;;;;;;;10.20;99.90;;;;;;5105747;27;20382;-55
2022/08/22 05:09:26;;;;;;;;;;;10.30;99.90;;;;;;5126351;27;19918;-55
2022/08/22 05:12:10;;;;;;;;;;;10.40;99.90;;;;;;5126691;27;19957;-54
2022/08/22 05:14:52;;;;;;;;;;;10.40;99.90;;;;;;5147128;27;20426;-55
2022/08/22 05:17:33;;;;;;;;;;;10.50;99.90;;;;;;5126436;27;19911;-55
2022/08/22 05:20:15;;;;;;;;;;;10.50;99.90;;;;;;5126280;27;19911;-55
2022/08/22 05:22:57;;;;;;;;;;;10.60;99.90;;;;;;5104269;27;20315;-55
2022/08/22 05:25:38;;;;;;;;;;;10.70;99.90;;;;;;5126455;27;19919;-55
2022/08/22 05:28:23;;;;;;;;;;;10.80;99.90;;;;;;5126683;27;20444;-55
2022/08/22 05:31:05;;;;;;;;;;;10.90;99.90;;;;;;5126461;27;19912;-55
2022/08/22 05:33:47;;;;;;;;;;;10.90;99.90;;;;;;5118108;27;19927;-55
2022/08/22 05:36:28;;;;;;;;;;;11.00;99.90;;;;;;5126914;27;19915;-55
2022/08/22 05:39:10;;;;;;;;;;;11.00;99.90;;;;;;5147249;27;19912;-56
2022/08/22 05:41:51;;;;;;;;;;;11.00;99.90;;;;;;5105616;27;20431;-55
2022/08/22 05:44:33;;;;;;;;;;;11.00;99.90;;;;;;5070646;28;19919;-55
2022/08/22 05:47:19;;;;;;;;;;;11.10;99.90;;;;;;5105991;27;20131;-55
2022/08/22 05:50:01;;;;;;;;;;;11.20;99.90;;;;;;5126497;27;19918;-54
2022/08/22 05:52:46;;;;;;;;;;;11.20;99.90;;;;;;5126388;27;20237;-55
2022/08/22 05:55:29;;;;;;;;;;;11.30;99.90;;;;;;5126848;27;19947;-56
2022/08/22 05:58:13;;;;;;;;;;;11.50;99.90;;;;;;5127094;27;19911;-56
2022/08/22 06:00:56;;;;;;;;;;;11.60;99.90;;;;;;5126712;27;19911;-56
2022/08/22 06:03:38;;;;;;;;;;;11.80;99.90;;;;;;5118522;27;19913;-55
2022/08/22 06:06:20;;;;;;;;;;;12.00;99.90;;;;;;5126110;27;19918;-55
2022/08/22 06:09:04;;;;;;;;;;;12.10;99.90;;;;;;5126219;27;19926;-55
2022/08/22 06:11:45;;;;;;;;;;;12.40;99.90;;;;;;5125604;27;20391;-55
2022/08/22 06:14:30;;;;;;;;;;;12.50;99.90;;;;;;5126475;27;20296;-55
2022/08/22 06:17:14;;;;;;;;;;;12.70;99.90;;;;;;5147336;27;19924;-55
2022/08/22 06:19:54;;;;;;;;;;;13.00;99.90;;;;;;5126308;27;19919;-55
2022/08/22 06:22:36;;;;;;;;;;;13.00;99.90;;;;;;5105815;27;19912;-55
2022/08/22 06:25:20;;;;;;;;;;;12.90;99.90;;;;;;5126836;27;19912;-55
2022/08/22 06:28:02;;;;;;;;;;;12.90;99.90;;;;;;5126762;27;19912;-54
2022/08/22 06:30:44;;;;;;;;;;;12.90;99.90;;;;;;5126300;27;19918;-55
2022/08/22 06:33:29;;;;;;;;;;;12.80;99.90;;;;;;5126732;27;19911;-54
2022/08/22 06:36:30;;;;;;;;;;;12.90;99.90;;;;;;5126780;27;20403;-55
2022/08/22 06:39:17;;;;;;;;;;;12.90;99.90;;;;;;5126476;27;19918;-54
2022/08/22 06:42:01;;;;;;;;;;;12.90;99.90;;;;;;5126641;27;19912;-55
2022/08/22 06:44:44;;;;;;;;;;;13.00;99.90;;;;;;5110247;27;19918;-55
2022/08/22 06:47:26;;;;;;;;;;;13.00;99.90;;;;;;5106117;27;19926;-55
2022/08/22 06:50:09;;;;;;;;;;;13.00;99.90;;;;;;5126871;27;20399;-55
2022/08/22 06:52:52;;;;;;;;;;;13.10;99.90;;;;;;5125836;27;20311;-54
2022/08/22 06:55:34;;;;;;;;;;;13.30;99.90;;;;;;5126812;27;19912;-54
2022/08/22 06:58:17;;;;;;;;;;;13.40;99.90;;;;;;5126632;27;19918;-54
2022/08/22 07:01:00;;;;;;;;;;;13.50;99.90;;;;;;5126354;27;20210;-54
2022/08/22 07:03:42;;;;;;;;;;;13.60;99.90;;;;;;5118823;27;19912;-55
2022/08/22 07:06:28;;;;;;;;;;;13.70;99.90;;;;;;5126970;27;19934;-54
2022/08/22 07:09:16;;;;;;;;;;;13.90;99.90;;;;;;5126820;27;19918;-55
2022/08/22 07:11:59;;;;;;;;;;;14.20;99.90;;;;;;5126919;27;20327;-54
2022/08/22 07:14:40;;;;;;;;;;;14.50;99.90;;;;;;5090106;27;19912;-54
2022/08/22 07:17:22;;;;;;;;;;;14.90;99.90;;;;;;5127159;27;19911;-54
2022/08/22 07:20:04;;;;;;;;;;;15.30;99.90;;;;;;5106231;27;19977;-54
2022/08/22 07:22:50;;;;;;;;;;;15.50;99.90;;;;;;5126718;27;19911;-56
2022/08/22 07:25:32;;;;;;;;;;;15.90;99.90;;;;;;5126715;27;19918;-54
2022/08/22 07:28:17;;;;;;;;;;;16.40;99.90;;;;;;5106120;27;19934;-56
2022/08/22 07:30:58;;;;;;;;;;;17.00;99.90;;;;;;5106195;27;19926;-54
2022/08/22 07:33:41;;;;;;;;;;;17.50;99.90;;;;;;5098820;27;20324;-54
2022/08/22 07:36:24;;;;;;;;;;;18.20;99.90;;;;;;5126633;27;19911;-54
2022/08/22 07:39:15;;;;;;;;;;;18.70;99.90;;;;;;5106630;27;19977;-56
2022/08/22 07:41:59;;;;;;;;;;;18.90;99.90;;;;;;5127142;27;19918;-54
2022/08/22 07:44:49;;;;;;;;;;;19.00;99.90;;;;;;5151664;22;19931;-55
2022/08/22 07:47:33;;;;;;;;;;;18.90;99.90;;;;;;5116737;27;20311;-55
2022/08/22 07:50:17;;;;;;;;;;;19.00;99.90;;;;;;5092848;27;19923;-55
2022/08/22 07:53:01;;;;;;;;;;;19.40;99.90;;;;;;5124869;27;19926;-55
2022/08/22 07:55:43;;;;;;;;;;;19.50;99.90;;;;;;5108562;27;19912;-55
2022/08/22 07:58:25;;;;;;;;;;;19.50;99.90;;;;;;5118866;27;20406;-55
2022/08/22 08:01:09;;;;;;;;;;;19.50;99.90;;;;;;5103468;27;19926;-55
2022/08/22 08:03:52;;;;;;;;;;;19.30;99.90;;;;;;5124082;27;19938;-55
2022/08/22 08:06:33;;;;;;;;;;;19.30;99.90;;;;;;5125291;27;19911;-55
2022/08/22 08:09:15;;;;;;;;;;;19.30;99.90;;;;;;5124851;27;19912;-55
2022/08/22 08:11:55;;;;;;;;;;;19.40;99.90;;;;;;5084449;28;20377;-55
2022/08/22 08:14:36;;;;;;;;;;;19.50;99.90;;;;;;5125532;27;19911;-55
2022/08/22 08:17:19;;;;;;;;;;;19.50;99.90;;;;;;5131696;27;19918;-55
2022/08/22 08:20:02;;;;;;;;;;;19.60;99.90;;;;;;5104722;27;19954;-55
2022/08/22 08:22:43;;;;;;;;;;;19.90;99.90;;;;;;5104822;27;19958;-54
2022/08/22 08:25:26;;;;;;;;;;;20.40;99.90;;;;;;5146278;27;19911;-55
2022/08/22 08:31:09;;;;;;;;;;;20.70;99.90;;;;;;5125493;27;19911;-55
2022/08/22 08:33:50;;;;;;;;;;;20.90;99.90;;;;;;5124491;27;19915;-55
2022/08/22 08:36:36;;;;;;;;;;;21.00;99.90;;;;;;5124448;27;19926;-55
2022/08/22 08:39:23;;;;;;;;;;;20.90;99.90;;;;;;5124304;27;19915;-55
2022/08/22 08:42:09;;;;;;;;;;;20.80;99.90;;;;;;5125927;27;19925;-55
2022/08/22 08:45:04;;;;;;;;;;;20.80;99.90;;;;;;5125582;27;19912;-55
2022/08/22 08:47:50;;;;;;;;;;;20.90;99.90;;;;;;5104463;27;19930;-55
2022/08/22 08:50:40;;;;;;;;;;;21.10;99.90;;;;;;5124687;27;19938;-55
2022/08/22 08:53:34;;;;;;;;;;;21.10;99.90;;;;;;5126305;27;19926;-55
2022/08/22 08:56:19;;;;;;;;;;;21.20;99.90;;;;;;5126083;27;19918;-55
2022/08/22 08:59:02;;;;;;;;;;;21.30;99.90;;;;;;5124864;27;20399;-55
2022/08/22 09:02:01;;;;;;;;;;;21.40;99.90;;;;;;5125634;27;20287;-55
2022/08/22 09:04:58;;;;;;;;;;;21.60;99.90;;;;;;5097321;27;19962;-55
2022/08/22 09:08:00;;;;;;;;;;;21.80;99.90;;;;;;5125116;27;20266;-55
2022/08/22 09:11:00;;;;;;;;;;;22.00;99.90;;;;;;5124729;27;19915;-55
2022/08/22 09:13:46;;;;;;;;;;;22.20;99.90;;;;;;5125560;27;19912;-56
2022/08/22 09:16:34;;;;;;;;;;;22.00;99.90;;;;;;5125377;27;19912;-55
2022/08/22 09:19:34;;;;;;;;;;;22.20;99.90;;;;;;5124442;27;20311;-55
2022/08/22 09:22:24;;;;;;;;;;;22.50;99.90;;;;;;5125082;27;20323;-55
2022/08/22 09:25:11;;;;;;;;;;;22.80;99.90;;;;;;5114502;27;19916;-55
2022/08/22 09:27:55;;;;;;;;;;;23.20;99.90;;;;;;5146128;27;20377;-55
2022/08/22 09:30:43;;;;;;;;;;;23.60;92.80;;;;;;5124954;27;19912;-55
2022/08/22 09:33:24;;;;;;;;;;;23.70;90.60;;;;;;5105761;27;20196;-55
2022/08/22 09:36:06;;;;;;;;;;;24.10;95.10;;;;;;5146263;27;20294;-55
2022/08/22 09:38:54;;;;;;;;;;;24.80;91.70;;;;;;5124923;27;19920;-55
2022/08/22 09:41:41;;;;;;;;;;;25.20;73.90;;;;;;5125354;27;19912;-55
2022/08/22 09:44:29;;;;;;;;;;;25.40;67.50;;;;;;5120690;27;19916;-55
2022/08/22 09:47:14;;;;;;;;;;;25.30;64.00;;;;;;5125104;27;19912;-55
2022/08/22 09:50:03;;;;;;;;;;;25.50;60.20;;;;;;5125218;27;19916;-55
2022/08/22 09:52:59;;;;;;;;;;;25.70;59.80;;;;;;5125323;27;19916;-55
2022/08/22 09:55:44;;;;;;;;;;;26.00;59.20;;;;;;5125444;27;19912;-55
2022/08/22 09:58:29;;;;;;;;;;;26.40;57.50;;;;;;5125964;27;19916;-55
2022/08/22 10:01:14;;;;;;;;;;;26.90;56.00;;;;;;5125247;27;19926;-55
2022/08/22 10:04:12;;;;;;;;;;;27.10;53.80;;;;;;5124398;27;19924;-55
2022/08/22 10:06:57;;;;;;;;;;;27.10;47.80;;;;;;5146060;27;19919;-55
2022/08/22 10:09:43;;;;;;;;;;;26.90;46.80;;;;;;5124671;27;19912;-54
2022/08/22 10:12:27;;;;;;;;;;;26.60;47.10;;;;;;5126205;27;20428;-54
2022/08/22 10:15:16;;;;;;;;;;;26.40;46.00;;;;;;5093426;27;20328;-54
2022/08/22 10:18:03;;;;;;;;;;;26.30;47.90;;;;;;5104905;27;19945;-55
2022/08/22 10:20:49;;;;;;;;;;;26.20;46.10;;;;;;5104329;27;19945;-55
2022/08/22 10:23:33;;;;;;;;;;;25.90;46.80;;;;;;5125287;27;19911;-55
2022/08/22 10:26:28;;;;;;;;;;;25.60;46.90;;;;;;5125485;27;19912;-55
2022/08/22 10:29:24;;;;;;;;;;;25.80;48.60;;;;;;5124670;27;20394;-55
2022/08/22 10:32:09;;;;;;;;;;;25.80;48.70;;;;;;5125885;27;20288;-55
2022/08/22 10:34:53;;;;;;;;;;;26.20;48.20;;;;;;5095814;27;20196;-55
2022/08/22 10:37:37;;;;;;;;;;;26.40;47.50;;;;;;5125131;27;19912;-56
2022/08/22 10:40:20;;;;;;;;;;;26.40;47.70;;;;;;5125246;27;19924;-55
2022/08/22 10:43:02;;;;;;;;;;;26.40;46.80;;;;;;5146154;27;19918;-55
2022/08/22 10:45:45;;;;;;;;;;;26.60;45.00;;;;;;5098284;27;19926;-55
2022/08/22 10:48:32;;;;;;;;;;;26.60;45.20;;;;;;5124950;27;19918;-55
2022/08/22 10:51:28;;;;;;;;;;;26.60;46.20;;;;;;5125499;27;20464;-55
2022/08/22 10:54:25;;;;;;;;;;;26.80;44.80;;;;;;5101903;27;19916;-55
2022/08/22 10:57:17;;;;;;;;;;;27.00;43.90;;;;;;5125605;27;19918;-55
2022/08/22 11:00:01;;;;;;;;;;;27.10;43.90;;;;;;5125270;27;19915;-55
2022/08/22 11:02:49;;;;;;;;;;;26.40;43.50;;;;;;5125497;27;19925;-55
2022/08/22 11:05:35;;;;;;;;;;;25.60;44.40;;;;;;5069652;28;19913;-55
2022/08/22 11:08:31;;;;;;;;;;;25.30;45.40;;;;;;5125259;27;20373;-54
2022/08/22 11:11:19;;;;;;;;;;;25.30;45.80;;;;;;5125365;27;19925;-55
2022/08/22 11:14:10;;;;;;;;;;;25.40;46.10;;;;;;5125753;27;19912;-55
2022/08/22 11:16:56;;;;;;;;;;;25.60;45.90;;;;;;5145654;27;20291;-55
2022/08/22 11:19:42;;;;;;;;;;;25.70;46.50;;;;;;5123905;27;19911;-55
2022/08/22 11:22:30;;;;;;;;;;;25.90;47.50;;;;;;5126209;27;19918;-55
2022/08/22 11:25:26;;;;;;;;;;;26.10;45.60;;;;;;5112980;27;19926;-55
2022/08/22 11:28:24;;;;;;;;;;;26.50;46.70;;;;;;5125812;27;20542;-55
2022/08/22 11:31:07;;;;;;;;;;;27.00;45.00;;;;;;5124787;27;19953;-56
2022/08/22 11:33:51;;;;;;;;;;;26.60;43.50;;;;;;5125693;27;19918;-55
2022/08/22 11:36:36;;;;;;;;;;;26.00;45.30;;;;;;5125293;27;19926;-55
2022/08/22 11:39:21;;;;;;;;;;;25.50;45.80;;;;;;5104557;27;19912;-55
2022/08/22 11:42:04;;;;;;;;;;;25.30;47.50;;;;;;5125525;27;19912;-55
2022/08/22 11:44:49;;;;;;;;;;;25.60;46.50;;;;;;5116516;27;19922;-56
2022/08/22 11:47:30;;;;;;;;;;;26.20;46.40;;;;;;5125173;27;19919;-55
2022/08/22 11:50:14;;;;;;;;;;;26.30;44.60;;;;;;5125203;27;19915;-56
2022/08/22 11:53:04;;;;;;;;;;;26.20;44.60;;;;;;5126211;27;20517;-54
2022/08/22 11:55:48;;;;;;;;;;;26.30;45.90;;;;;;5108485;27;20381;-55
2022/08/22 11:58:39;;;;;;;;;;;26.20;46.80;;;;;;5104172;27;19912;-54
2022/08/22 12:01:22;;;;;;;;;;;26.10;45.30;;;;;;5105979;27;20375;-54
2022/08/22 12:04:08;;;;;;;;;;;26.30;46.20;;;;;;5124481;27;20353;-55
2022/08/22 12:06:58;;;;;;;;;;;26.50;45.90;;;;;;5126297;27;19918;-55
2022/08/22 12:09:49;;;;;;;;;;;26.60;44.90;;;;;;5126262;27;19918;-54
2022/08/22 12:12:46;;;;;;;;;;;26.70;45.80;;;;;;5126815;27;20254;-55
2022/08/22 12:15:31;;;;;;;;;;;27.20;45.10;;;;;;5091005;27;19912;-54
2022/08/22 12:18:23;;;;;;;;;;;27.80;42.80;;;;;;5127152;27;19911;-55
2022/08/22 12:21:22;;;;;;;;;;;27.80;43.60;;;;;;5103523;27;19912;-56
2022/08/22 12:24:14;;;;;;;;;;;27.40;41.80;;;;;;5119487;27;19912;-56
2022/08/22 12:26:59;;;;;;;;;;;26.60;42.50;;;;;;5125946;27;19912;-56
2022/08/22 12:29:43;;;;;;;;;;;26.30;44.70;;;;;;5125369;27;19915;-56
2022/08/22 12:32:41;;;;;;;;;;;26.30;45.20;;;;;;5125565;27;19938;-56
2022/08/22 12:35:26;;;;;;;;;;;26.30;44.30;;;;;;5146493;27;20438;-56
2022/08/22 12:38:15;;;;;;;;;;;26.30;44.60;;;;;;5105429;27;19954;-56
2022/08/22 12:41:01;;;;;;;;;;;26.30;44.80;;;;;;5105142;27;20474;-56
2022/08/22 12:43:48;;;;;;;;;;;26.20;45.90;;;;;;5126594;27;19918;-56
2022/08/22 12:46:36;;;;;;;;;;;26.20;45.60;;;;;;5125234;27;19926;-56
2022/08/22 12:49:24;;;;;;;;;;;26.00;45.30;;;;;;5124965;27;20597;-57
2022/08/22 12:52:13;;;;;;;;;;;26.00;44.50;;;;;;5126050;27;19912;-57
2022/08/22 12:55:05;;;;;;;;;;;25.90;44.20;;;;;;5096417;27;19927;-56
2022/08/22 12:57:48;;;;;;;;;;;25.70;43.50;;;;;;5126128;27;19941;-56
2022/08/22 13:00:33;;;;;;;;;;;25.70;43.30;;;;;;5126269;27;19918;-56
2022/08/22 13:03:21;;;;;;;;;;;26.00;42.40;;;;;;5126126;27;20301;-56
2022/08/22 13:06:04;;;;;;;;;;;26.50;40.90;;;;;;5125757;27;19922;-56
2022/08/22 13:08:45;;;;;;;;;;;26.90;40.80;;;;;;5104999;27;19930;-56
2022/08/22 13:11:26;;;;;;;;;;;27.30;41.10;;;;;;5125842;27;19965;-57
2022/08/22 13:14:09;;;;;;;;;;;27.30;40.90;;;;;;5122538;27;20391;-56
2022/08/22 13:16:50;;;;;;;;;;;27.50;40.50;;;;;;5126359;27;19916;-56
2022/08/22 13:19:31;;;;;;;;;;;27.70;40.00;;;;;;5126096;27;19912;-55
2022/08/22 13:22:13;;;;;;;;;;;28.20;40.50;;;;;;5106047;27;20311;-55
2022/08/22 13:24:56;;;;;;;;;;;28.60;39.40;;;;;;5116575;27;19912;-54
2022/08/22 13:27:41;;;;;;;;;;;28.60;38.70;;;;;;5117660;27;19931;-55
2022/08/22 13:30:25;;;;;;;;;;;28.90;38.00;;;;;;5125236;27;20364;-55
2022/08/22 13:33:08;;;;;;;;;;;29.00;38.20;;;;;;5125739;27;20627;-54
2022/08/22 13:35:49;;;;;;;;;;;29.00;38.20;;;;;;5109181;27;20282;-55
2022/08/22 13:38:33;;;;;;;;;;;28.90;39.30;;;;;;5125742;27;19911;-55
2022/08/22 13:41:18;;;;;;;;;;;28.60;39.30;;;;;;5125618;27;19912;-58
2022/08/22 13:44:12;;;;;;;;;;;28.70;39.70;;;;;;5124185;27;20335;-54
2022/08/22 13:46:51;;;;;;;;;;;28.70;39.40;;;;;;5120499;27;20386;-58
2022/08/22 13:49:33;;;;;;;;;;;28.50;39.20;;;;;;5104907;27;19919;-55
2022/08/22 13:52:21;;;;;;;;;;;28.40;39.10;;;;;;5121666;27;19926;-55
2022/08/22 13:55:05;;;;;;;;;;;28.00;41.10;;;;;;5111296;27;19918;-56
2022/08/22 13:57:46;;;;;;;;;;;27.60;41.00;;;;;;5123484;27;19915;-56
2022/08/22 14:00:46;;;;;;;;;;;27.30;41.00;;;;;;5124781;27;19911;-55
2022/08/22 14:03:28;;;;;;;;;;;27.00;42.40;;;;;;5100483;27;19922;-55
2022/08/22 14:06:19;;;;;;;;;;;26.80;43.40;;;;;;5121919;27;19930;-55
2022/08/22 14:09:02;;;;;;;;;;;26.70;41.90;;;;;;5124165;27;19911;-55
2022/08/22 14:11:45;;;;;;;;;;;26.50;42.70;;;;;;5125168;27;19918;-55
2022/08/22 14:14:30;;;;;;;;;;;26.40;43.40;;;;;;5118264;27;20399;-55
2022/08/22 14:17:15;;;;;;;;;;;26.30;45.10;;;;;;5082526;28;19912;-55
2022/08/22 14:19:57;;;;;;;;;;;26.30;45.90;;;;;;5125032;27;19912;-55
2022/08/22 14:22:39;;;;;;;;;;;26.10;45.50;;;;;;5125670;27;19918;-55
2022/08/22 14:25:20;;;;;;;;;;;25.80;45.60;;;;;;5125665;27;20126;-55
2022/08/22 14:28:03;;;;;;;;;;;25.70;46.50;;;;;;5105378;27;19969;-55
2022/08/22 14:30:52;;;;;;;;;;;25.70;46.70;;;;;;5104630;27;19969;-55
2022/08/22 14:33:34;;;;;;;;;;;25.50;49.20;;;;;;5125235;27;19922;-55
2022/08/22 14:36:17;;;;;;;;;;;25.30;50.60;;;;;;5126187;27;19912;-55
2022/08/22 14:39:01;;;;;;;;;;;25.10;51.40;;;;;;5125640;27;19923;-55
2022/08/22 14:41:44;;;;;;;;;;;25.10;52.00;;;;;;5124770;27;20289;-55
2022/08/22 14:44:26;;;;;;;;;;;25.00;51.30;;;;;;5100753;27;19922;-55
2022/08/22 14:47:09;;;;;;;;;;;25.10;51.80;;;;;;5126521;27;19918;-55
2022/08/22 14:49:51;;;;;;;;;;;25.10;52.80;;;;;;5124411;27;20222;-55
2022/08/22 14:52:36;;;;;;;;;;;25.10;52.60;;;;;;5086973;27;19919;-55
2022/08/22 14:55:18;;;;;;;;;;;25.10;51.90;;;;;;5126869;27;19912;-55
2022/08/22 14:58:01;;;;;;;;;;;24.90;52.10;;;;;;5106652;27;19912;-55
2022/08/22 15:00:43;;;;;;;;;;;25.00;52.30;;;;;;5085552;28;20443;-55
2022/08/22 15:03:28;;;;;;;;;;;24.80;53.10;;;;;;5126977;27;19919;-55
2022/08/22 15:06:11;;;;;;;;;;;24.80;53.20;;;;;;5127049;27;19925;-55
2022/08/22 15:08:51;;;;;;;;;;;24.90;53.80;;;;;;5106078;27;19969;-55
2022/08/22 15:11:31;;;;;;;;;;;24.90;53.10;;;;;;5141773;27;19918;-56
2022/08/22 15:14:12;;;;;;;;;;;24.90;54.10;;;;;;5126919;27;20422;-56
2022/08/22 15:16:53;;;;;;;;;;;24.60;53.80;;;;;;5126441;27;19916;-56
2022/08/22 15:19:37;;;;;;;;;;;24.50;54.80;;;;;;5105733;27;19950;-56
2022/08/22 15:22:20;;;;;;;;;;;24.50;55.50;;;;;;5124185;27;19918;-57
2022/08/22 15:25:02;;;;;;;;;;;24.60;55.60;;;;;;5126387;27;19915;-56
2022/08/22 15:27:45;;;;;;;;;;;24.50;55.80;;;;;;5120348;27;19923;-56
2022/08/22 15:30:34;;;;;;;;;;;24.40;55.90;;;;;;5111303;27;19965;-56
2022/08/22 15:33:16;;;;;;;;;;;24.40;55.60;;;;;;5095937;27;19920;-56
2022/08/22 15:36:07;;;;;;;;;;;24.20;56.20;;;;;;5105476;27;19912;-56
2022/08/22 15:38:48;;;;;;;;;;;24.10;57.60;;;;;;5122623;27;19926;-56
2022/08/22 15:41:45;;;;;;;;;;;24.00;56.40;;;;;;5112519;27;19915;-56
2022/08/22 15:44:29;;;;;;;;;;;23.80;57.30;;;;;;5122925;27;19916;-56
2022/08/22 15:47:21;;;;;;;;;;;23.70;57.70;;;;;;5126442;27;19919;-56
2022/08/22 15:50:02;;;;;;;;;;;23.50;59.40;;;;;;5126823;27;19915;-56
2022/08/22 15:52:56;;;;;;;;;;;23.40;60.10;;;;;;5126586;27;20299;-56
2022/08/22 15:55:37;;;;;;;;;;;23.40;61.60;;;;;;5107957;27;19917;-58
2022/08/22 15:58:22;;;;;;;;;;;23.30;61.10;;;;;;5104009;27;20367;-56
2022/08/22 16:01:07;;;;;;;;;;;23.20;60.00;;;;;;5126882;27;19911;-56
2022/08/22 16:03:54;;;;;;;;;;;23.10;60.60;;;;;;5126129;27;19915;-57
2022/08/22 16:06:45;;;;;;;;;;;23.10;61.10;;;;;;5081626;28;19912;-56
2022/08/22 16:09:35;;;;;;;;;;;23.30;60.80;;;;;;5116336;27;19916;-56
2022/08/22 16:12:28;;;;;;;;;;;23.40;59.90;;;;;;5158580;27;19918;-56